sensor_id;sensor_type;location;lat;lon;timestamp;P1;durP1;ratioP1;P2;durP2;ratioP2
3299;SDS011;1662;49.310;8.134;2023-07-16T00:01:44;2.70;;;2.60;;
3299;SDS011;1662;49.310;8.134;2023-07-16T00:04:09;2.57;;;2.47;;
3299;SDS011;1662;49.310;8.134;2023-07-16T00:06:35;3.00;;;2.80;;
3299;SDS011;1662;49.310;8.134;2023-07-16T00:09:00;2.37;;;2.07;;
3299;SDS011;1662;49.310;8.134;2023-07-16T00:11:26;2.50;;;2.40;;
3299;SDS011;1662;49.310;8.134;2023-07-16T00:13:52;2.60;;;2.27;;
3299;SDS011;1662;49.310;8.134;2023-07-16T00:16:17;2.67;;;2.57;;
3299;SDS011;1662;49.310;8.134;2023-07-16T00:18:44;2.70;;;2.50;;
3299;SDS011;1662;49.310;8.134;2023-07-16T00:21:10;2.40;;;2.30;;
3299;SDS011;1662;49.310;8.134;2023-07-16T00:23:35;2.20;;;2.10;;
3299;SDS011;1662;49.310;8.134;2023-07-16T00:26:02;2.53;;;2.43;;
3299;SDS011;1662;49.310;8.134;2023-07-16T00:28:27;2.67;;;2.50;;
3299;SDS011;1662;49.310;8.134;2023-07-16T00:30:53;4.50;;;2.67;;
3299;SDS011;1662;49.310;8.134;2023-07-16T00:33:18;6.23;;;2.27;;
3299;SDS011;1662;49.310;8.134;2023-07-16T00:35:47;2.40;;;2.20;;
3299;SDS011;1662;49.310;8.134;2023-07-16T00:38:14;2.63;;;2.43;;
3299;SDS011;1662;49.310;8.134;2023-07-16T00:40:40;2.37;;;2.27;;
3299;SDS011;1662;49.310;8.134;2023-07-16T00:43:07;2.60;;;2.23;;
3299;SDS011;1662;49.310;8.134;2023-07-16T00:45:33;2.40;;;2.30;;
3299;SDS011;1662;49.310;8.134;2023-07-16T00:47:59;2.33;;;2.23;;
3299;SDS011;1662;49.310;8.134;2023-07-16T00:50:25;2.37;;;2.23;;
3299;SDS011;1662;49.310;8.134;2023-07-16T00:52:50;2.10;;;2.00;;
3299;SDS011;1662;49.310;8.134;2023-07-16T00:55:16;2.03;;;1.93;;
3299;SDS011;1662;49.310;8.134;2023-07-16T00:57:42;4.40;;;2.50;;
3299;SDS011;1662;49.310;8.134;2023-07-16T01:00:08;3.23;;;2.10;;
3299;SDS011;1662;49.310;8.134;2023-07-16T01:02:35;2.80;;;2.60;;
3299;SDS011;1662;49.310;8.134;2023-07-16T01:05:01;4.07;;;2.50;;
3299;SDS011;1662;49.310;8.134;2023-07-16T01:07:26;2.87;;;2.70;;
3299;SDS011;1662;49.310;8.134;2023-07-16T01:09:57;8.87;;;2.97;;
3299;SDS011;1662;49.310;8.134;2023-07-16T01:12:23;2.33;;;2.23;;
3299;SDS011;1662;49.310;8.134;2023-07-16T01:14:51;4.93;;;3.10;;
3299;SDS011;1662;49.310;8.134;2023-07-16T01:17:17;5.53;;;2.50;;
3299;SDS011;1662;49.310;8.134;2023-07-16T01:19:43;4.43;;;2.77;;
3299;SDS011;1662;49.310;8.134;2023-07-16T01:30:30;3.30;;;2.40;;
3299;SDS011;1662;49.310;8.134;2023-07-16T01:32:57;3.00;;;2.73;;
3299;SDS011;1662;49.310;8.134;2023-07-16T01:35:23;2.60;;;2.50;;
3299;SDS011;1662;49.310;8.134;2023-07-16T01:37:50;3.40;;;3.10;;
3299;SDS011;1662;49.310;8.134;2023-07-16T01:40:16;2.77;;;2.53;;
3299;SDS011;1662;49.310;8.134;2023-07-16T01:42:41;2.77;;;2.13;;
3299;SDS011;1662;49.310;8.134;2023-07-16T01:45:07;2.70;;;2.50;;
3299;SDS011;1662;49.310;8.134;2023-07-16T01:47:40;3.77;;;3.10;;
3299;SDS011;1662;49.310;8.134;2023-07-16T01:50:28;2.60;;;2.40;;
3299;SDS011;1662;49.310;8.134;2023-07-16T01:52:54;3.03;;;2.67;;
3299;SDS011;1662;49.310;8.134;2023-07-16T01:55:20;2.50;;;2.30;;
3299;SDS011;1662;49.310;8.134;2023-07-16T01:57:45;4.60;;;2.60;;
3299;SDS011;1662;49.310;8.134;2023-07-16T02:00:11;5.93;;;3.10;;
3299;SDS011;1662;49.310;8.134;2023-07-16T02:02:37;2.50;;;2.40;;
3299;SDS011;1662;49.310;8.134;2023-07-16T02:05:05;3.03;;;2.83;;
3299;SDS011;1662;49.310;8.134;2023-07-16T02:07:31;3.17;;;2.50;;
3299;SDS011;1662;49.310;8.134;2023-07-16T02:09:56;3.43;;;3.23;;
3299;SDS011;1662;49.310;8.134;2023-07-16T02:12:22;2.60;;;2.40;;
3299;SDS011;1662;49.310;8.134;2023-07-16T02:14:47;2.80;;;2.60;;
3299;SDS011;1662;49.310;8.134;2023-07-16T02:17:13;2.73;;;2.53;;
3299;SDS011;1662;49.310;8.134;2023-07-16T02:19:41;2.83;;;2.63;;
3299;SDS011;1662;49.310;8.134;2023-07-16T02:22:07;4.97;;;2.83;;
3299;SDS011;1662;49.310;8.134;2023-07-16T02:24:32;3.23;;;2.67;;
3299;SDS011;1662;49.310;8.134;2023-07-16T02:26:58;2.30;;;2.13;;
3299;SDS011;1662;49.310;8.134;2023-07-16T02:29:24;3.17;;;2.93;;
3299;SDS011;1662;49.310;8.134;2023-07-16T02:31:49;7.17;;;2.77;;
3299;SDS011;1662;49.310;8.134;2023-07-16T02:34:15;7.57;;;3.33;;
3299;SDS011;1662;49.310;8.134;2023-07-16T02:36:40;5.60;;;2.73;;
3299;SDS011;1662;49.310;8.134;2023-07-16T02:39:06;6.60;;;2.70;;
3299;SDS011;1662;49.310;8.134;2023-07-16T02:41:32;7.40;;;2.70;;
3299;SDS011;1662;49.310;8.134;2023-07-16T02:44:01;3.10;;;3.00;;
3299;SDS011;1662;49.310;8.134;2023-07-16T02:46:28;3.50;;;3.20;;
3299;SDS011;1662;49.310;8.134;2023-07-16T02:48:54;4.40;;;2.77;;
3299;SDS011;1662;49.310;8.134;2023-07-16T02:51:19;4.63;;;2.80;;
3299;SDS011;1662;49.310;8.134;2023-07-16T02:53:45;2.87;;;2.67;;
3299;SDS011;1662;49.310;8.134;2023-07-16T02:56:11;3.50;;;3.20;;
3299;SDS011;1662;49.310;8.134;2023-07-16T02:58:36;4.60;;;2.30;;
3299;SDS011;1662;49.310;8.134;2023-07-16T03:01:02;3.73;;;2.80;;
3299;SDS011;1662;49.310;8.134;2023-07-16T03:03:27;4.53;;;2.80;;
3299;SDS011;1662;49.310;8.134;2023-07-16T03:05:53;3.40;;;2.50;;
3299;SDS011;1662;49.310;8.134;2023-07-16T03:08:18;5.50;;;3.03;;
3299;SDS011;1662;49.310;8.134;2023-07-16T03:10:44;3.20;;;2.17;;
3299;SDS011;1662;49.310;8.134;2023-07-16T03:13:11;3.87;;;2.87;;
3299;SDS011;1662;49.310;8.134;2023-07-16T03:15:37;4.27;;;2.90;;
3299;SDS011;1662;49.310;8.134;2023-07-16T03:18:02;5.20;;;2.93;;
3299;SDS011;1662;49.310;8.134;2023-07-16T03:20:28;5.23;;;2.80;;
3299;SDS011;1662;49.310;8.134;2023-07-16T03:22:54;3.03;;;2.50;;
3299;SDS011;1662;49.310;8.134;2023-07-16T03:25:19;4.57;;;2.80;;
3299;SDS011;1662;49.310;8.134;2023-07-16T03:27:45;3.97;;;2.73;;
3299;SDS011;1662;49.310;8.134;2023-07-16T03:30:10;2.70;;;2.50;;
3299;SDS011;1662;49.310;8.134;2023-07-16T03:32:36;5.80;;;2.47;;
3299;SDS011;1662;49.310;8.134;2023-07-16T03:35:02;5.73;;;2.63;;
3299;SDS011;1662;49.310;8.134;2023-07-16T03:37:27;3.40;;;3.10;;
3299;SDS011;1662;49.310;8.134;2023-07-16T03:39:55;4.60;;;2.70;;
3299;SDS011;1662;49.310;8.134;2023-07-16T03:42:21;7.00;;;2.63;;
3299;SDS011;1662;49.310;8.134;2023-07-16T03:44:47;3.53;;;2.83;;
3299;SDS011;1662;49.310;8.134;2023-07-16T03:47:12;4.87;;;2.30;;
3299;SDS011;1662;49.310;8.134;2023-07-16T03:49:38;3.83;;;2.90;;
3299;SDS011;1662;49.310;8.134;2023-07-16T03:52:04;6.23;;;2.80;;
3299;SDS011;1662;49.310;8.134;2023-07-16T03:54:30;4.73;;;3.10;;
3299;SDS011;1662;49.310;8.134;2023-07-16T03:56:56;3.77;;;2.20;;
3299;SDS011;1662;49.310;8.134;2023-07-16T03:59:22;2.40;;;2.30;;
3299;SDS011;1662;49.310;8.134;2023-07-16T04:01:47;2.83;;;2.70;;
3299;SDS011;1662;49.310;8.134;2023-07-16T04:04:13;7.10;;;2.90;;
3299;SDS011;1662;49.310;8.134;2023-07-16T04:06:40;2.67;;;2.47;;
3299;SDS011;1662;49.310;8.134;2023-07-16T04:09:06;5.10;;;2.33;;
3299;SDS011;1662;49.310;8.134;2023-07-16T04:11:32;5.03;;;3.23;;
3299;SDS011;1662;49.310;8.134;2023-07-16T04:13:57;3.43;;;3.13;;
3299;SDS011;1662;49.310;8.134;2023-07-16T04:16:23;3.47;;;2.70;;
3299;SDS011;1662;49.310;8.134;2023-07-16T04:18:48;6.17;;;2.63;;
3299;SDS011;1662;49.310;8.134;2023-07-16T04:21:14;4.73;;;2.70;;
3299;SDS011;1662;49.310;8.134;2023-07-16T04:23:39;4.93;;;2.77;;
3299;SDS011;1662;49.310;8.134;2023-07-16T04:26:05;2.83;;;2.53;;
3299;SDS011;1662;49.310;8.134;2023-07-16T04:28:31;5.30;;;3.13;;
3299;SDS011;1662;49.310;8.134;2023-07-16T04:30:58;2.90;;;2.40;;
3299;SDS011;1662;49.310;8.134;2023-07-16T04:33:24;4.17;;;2.83;;
3299;SDS011;1662;49.310;8.134;2023-07-16T04:35:50;3.23;;;2.80;;
3299;SDS011;1662;49.310;8.134;2023-07-16T04:38:18;2.80;;;2.57;;
3299;SDS011;1662;49.310;8.134;2023-07-16T04:40:43;5.10;;;3.10;;
3299;SDS011;1662;49.310;8.134;2023-07-16T04:43:09;3.30;;;2.90;;
3299;SDS011;1662;49.310;8.134;2023-07-16T04:45:35;6.67;;;3.13;;
3299;SDS011;1662;49.310;8.134;2023-07-16T04:48:01;6.00;;;2.50;;
3299;SDS011;1662;49.310;8.134;2023-07-16T04:50:26;7.13;;;2.90;;
3299;SDS011;1662;49.310;8.134;2023-07-16T04:52:52;3.40;;;2.63;;
3299;SDS011;1662;49.310;8.134;2023-07-16T04:55:17;3.93;;;2.83;;
3299;SDS011;1662;49.310;8.134;2023-07-16T04:57:43;4.23;;;3.20;;
3299;SDS011;1662;49.310;8.134;2023-07-16T05:00:09;2.93;;;2.57;;
3299;SDS011;1662;49.310;8.134;2023-07-16T05:02:35;4.73;;;2.70;;
3299;SDS011;1662;49.310;8.134;2023-07-16T05:05:00;3.73;;;3.10;;
3299;SDS011;1662;49.310;8.134;2023-07-16T05:07:26;6.00;;;3.20;;
3299;SDS011;1662;49.310;8.134;2023-07-16T05:09:51;5.70;;;3.63;;
3299;SDS011;1662;49.310;8.134;2023-07-16T05:12:17;7.00;;;3.03;;
3299;SDS011;1662;49.310;8.134;2023-07-16T05:14:48;5.10;;;2.77;;
3299;SDS011;1662;49.310;8.134;2023-07-16T05:17:14;4.77;;;2.57;;
3299;SDS011;1662;49.310;8.134;2023-07-16T05:19:40;5.53;;;2.90;;
3299;SDS011;1662;49.310;8.134;2023-07-16T05:22:07;3.30;;;3.00;;
3299;SDS011;1662;49.310;8.134;2023-07-16T05:24:32;5.50;;;2.90;;
3299;SDS011;1662;49.310;8.134;2023-07-16T05:26:58;6.77;;;2.77;;
3299;SDS011;1662;49.310;8.134;2023-07-16T05:29:24;4.80;;;2.80;;
3299;SDS011;1662;49.310;8.134;2023-07-16T05:31:52;6.23;;;2.87;;
3299;SDS011;1662;49.310;8.134;2023-07-16T05:34:18;4.60;;;3.00;;
3299;SDS011;1662;49.310;8.134;2023-07-16T05:36:43;5.20;;;3.20;;
3299;SDS011;1662;49.310;8.134;2023-07-16T05:39:12;5.20;;;2.73;;
3299;SDS011;1662;49.310;8.134;2023-07-16T05:41:44;3.20;;;3.00;;
3299;SDS011;1662;49.310;8.134;2023-07-16T05:44:09;3.30;;;2.97;;
3299;SDS011;1662;49.310;8.134;2023-07-16T05:46:35;4.07;;;3.17;;
3299;SDS011;1662;49.310;8.134;2023-07-16T05:49:01;3.77;;;2.70;;
3299;SDS011;1662;49.310;8.134;2023-07-16T05:51:26;2.87;;;2.67;;
3299;SDS011;1662;49.310;8.134;2023-07-16T05:53:52;2.93;;;2.60;;
3299;SDS011;1662;49.310;8.134;2023-07-16T05:56:17;3.03;;;2.80;;
3299;SDS011;1662;49.310;8.134;2023-07-16T05:58:43;3.50;;;3.00;;
3299;SDS011;1662;49.310;8.134;2023-07-16T06:01:09;6.83;;;2.77;;
3299;SDS011;1662;49.310;8.134;2023-07-16T06:03:34;3.33;;;3.07;;
3299;SDS011;1662;49.310;8.134;2023-07-16T06:06:00;5.07;;;3.77;;
3299;SDS011;1662;49.310;8.134;2023-07-16T06:08:26;7.03;;;3.30;;
3299;SDS011;1662;49.310;8.134;2023-07-16T06:10:51;3.50;;;3.13;;
3299;SDS011;1662;49.310;8.134;2023-07-16T06:13:17;7.63;;;3.47;;
3299;SDS011;1662;49.310;8.134;2023-07-16T06:15:43;3.00;;;2.80;;
3299;SDS011;1662;49.310;8.134;2023-07-16T06:18:09;8.10;;;3.77;;
3299;SDS011;1662;49.310;8.134;2023-07-16T06:20:35;8.87;;;3.50;;
3299;SDS011;1662;49.310;8.134;2023-07-16T06:23:00;5.70;;;3.90;;
3299;SDS011;1662;49.310;8.134;2023-07-16T06:25:26;9.13;;;3.20;;
3299;SDS011;1662;49.310;8.134;2023-07-16T06:27:51;8.17;;;2.80;;
3299;SDS011;1662;49.310;8.134;2023-07-16T06:30:17;4.77;;;3.30;;
3299;SDS011;1662;49.310;8.134;2023-07-16T06:32:45;6.60;;;3.30;;
3299;SDS011;1662;49.310;8.134;2023-07-16T06:35:13;4.10;;;3.23;;
3299;SDS011;1662;49.310;8.134;2023-07-16T06:37:41;4.23;;;3.10;;
3299;SDS011;1662;49.310;8.134;2023-07-16T06:40:07;4.93;;;3.40;;
3299;SDS011;1662;49.310;8.134;2023-07-16T06:42:33;6.10;;;2.97;;
3299;SDS011;1662;49.310;8.134;2023-07-16T06:44:59;4.53;;;3.60;;
3299;SDS011;1662;49.310;8.134;2023-07-16T06:47:27;4.30;;;2.60;;
3299;SDS011;1662;49.310;8.134;2023-07-16T06:49:52;3.20;;;2.90;;
3299;SDS011;1662;49.310;8.134;2023-07-16T06:52:21;6.63;;;3.67;;
3299;SDS011;1662;49.310;8.134;2023-07-16T06:54:48;4.10;;;2.87;;
3299;SDS011;1662;49.310;8.134;2023-07-16T06:57:13;5.07;;;3.50;;
3299;SDS011;1662;49.310;8.134;2023-07-16T06:59:39;3.00;;;2.70;;
3299;SDS011;1662;49.310;8.134;2023-07-16T07:02:05;4.13;;;3.73;;
3299;SDS011;1662;49.310;8.134;2023-07-16T07:04:31;8.83;;;3.83;;
3299;SDS011;1662;49.310;8.134;2023-07-16T07:06:57;4.43;;;3.30;;
3299;SDS011;1662;49.310;8.134;2023-07-16T07:09:22;5.67;;;3.33;;
3299;SDS011;1662;49.310;8.134;2023-07-16T07:11:48;7.70;;;3.70;;
3299;SDS011;1662;49.310;8.134;2023-07-16T07:14:13;3.90;;;3.60;;
3299;SDS011;1662;49.310;8.134;2023-07-16T07:16:41;4.63;;;2.90;;
3299;SDS011;1662;49.310;8.134;2023-07-16T07:19:08;13.47;;;4.07;;
3299;SDS011;1662;49.310;8.134;2023-07-16T07:21:34;4.43;;;3.70;;
3299;SDS011;1662;49.310;8.134;2023-07-16T07:24:10;4.20;;;3.80;;
3299;SDS011;1662;49.310;8.134;2023-07-16T07:26:36;6.10;;;3.70;;
3299;SDS011;1662;49.310;8.134;2023-07-16T07:29:01;3.60;;;3.27;;
3299;SDS011;1662;49.310;8.134;2023-07-16T07:31:27;5.77;;;3.37;;
3299;SDS011;1662;49.310;8.134;2023-07-16T07:33:53;5.30;;;3.50;;
3299;SDS011;1662;49.310;8.134;2023-07-16T07:36:19;7.13;;;3.10;;
3299;SDS011;1662;49.310;8.134;2023-07-16T07:38:45;7.90;;;4.03;;
3299;SDS011;1662;49.310;8.134;2023-07-16T07:41:10;5.80;;;3.60;;
3299;SDS011;1662;49.310;8.134;2023-07-16T07:43:39;4.20;;;3.23;;
3299;SDS011;1662;49.310;8.134;2023-07-16T07:46:08;5.57;;;3.80;;
3299;SDS011;1662;49.310;8.134;2023-07-16T07:48:35;5.97;;;3.73;;
3299;SDS011;1662;49.310;8.134;2023-07-16T07:51:02;11.30;;;3.37;;
3299;SDS011;1662;49.310;8.134;2023-07-16T07:53:27;7.17;;;3.00;;
3299;SDS011;1662;49.310;8.134;2023-07-16T07:55:53;5.57;;;3.37;;
3299;SDS011;1662;49.310;8.134;2023-07-16T07:58:26;5.17;;;3.93;;
3299;SDS011;1662;49.310;8.134;2023-07-16T08:00:52;6.63;;;3.63;;
3299;SDS011;1662;49.310;8.134;2023-07-16T08:03:19;3.50;;;3.17;;
3299;SDS011;1662;49.310;8.134;2023-07-16T08:05:47;4.20;;;3.57;;
3299;SDS011;1662;49.310;8.134;2023-07-16T08:08:14;4.60;;;3.40;;
3299;SDS011;1662;49.310;8.134;2023-07-16T08:10:40;6.03;;;3.67;;
3299;SDS011;1662;49.310;8.134;2023-07-16T08:13:05;5.80;;;3.60;;
3299;SDS011;1662;49.310;8.134;2023-07-16T08:15:31;4.50;;;3.50;;
3299;SDS011;1662;49.310;8.134;2023-07-16T08:17:57;4.70;;;3.47;;
3299;SDS011;1662;49.310;8.134;2023-07-16T08:20:24;3.37;;;3.10;;
3299;SDS011;1662;49.310;8.134;2023-07-16T08:22:51;4.63;;;3.70;;
3299;SDS011;1662;49.310;8.134;2023-07-16T08:25:16;4.70;;;3.77;;
3299;SDS011;1662;49.310;8.134;2023-07-16T08:27:42;7.83;;;4.00;;
3299;SDS011;1662;49.310;8.134;2023-07-16T08:30:11;6.10;;;3.43;;
3299;SDS011;1662;49.310;8.134;2023-07-16T08:32:39;7.07;;;3.83;;
3299;SDS011;1662;49.310;8.134;2023-07-16T08:35:05;4.50;;;4.20;;
3299;SDS011;1662;49.310;8.134;2023-07-16T08:37:31;5.90;;;3.93;;
3299;SDS011;1662;49.310;8.134;2023-07-16T08:39:56;8.90;;;3.80;;
3299;SDS011;1662;49.310;8.134;2023-07-16T08:42:22;4.60;;;3.63;;
3299;SDS011;1662;49.310;8.134;2023-07-16T08:44:48;3.83;;;3.40;;
3299;SDS011;1662;49.310;8.134;2023-07-16T08:47:17;8.00;;;3.50;;
3299;SDS011;1662;49.310;8.134;2023-07-16T08:49:50;7.47;;;3.60;;
3299;SDS011;1662;49.310;8.134;2023-07-16T08:52:20;4.53;;;3.50;;
3299;SDS011;1662;49.310;8.134;2023-07-16T08:54:46;3.53;;;3.33;;
3299;SDS011;1662;49.310;8.134;2023-07-16T08:57:12;5.07;;;3.77;;
3299;SDS011;1662;49.310;8.134;2023-07-16T08:59:38;4.30;;;3.90;;
3299;SDS011;1662;49.310;8.134;2023-07-16T09:02:04;9.70;;;5.20;;
3299;SDS011;1662;49.310;8.134;2023-07-16T09:04:30;7.30;;;3.90;;
3299;SDS011;1662;49.310;8.134;2023-07-16T09:06:57;5.40;;;4.53;;
3299;SDS011;1662;49.310;8.134;2023-07-16T09:09:23;8.77;;;4.63;;
3299;SDS011;1662;49.310;8.134;2023-07-16T09:11:49;3.83;;;2.93;;
3299;SDS011;1662;49.310;8.134;2023-07-16T09:14:16;4.83;;;4.43;;
3299;SDS011;1662;49.310;8.134;2023-07-16T09:16:48;5.00;;;4.67;;
3299;SDS011;1662;49.310;8.134;2023-07-16T09:19:15;5.53;;;4.90;;
3299;SDS011;1662;49.310;8.134;2023-07-16T09:21:45;7.83;;;6.03;;
3299;SDS011;1662;49.310;8.134;2023-07-16T09:24:11;6.43;;;5.83;;
3299;SDS011;1662;49.310;8.134;2023-07-16T09:26:37;6.60;;;5.77;;
3299;SDS011;1662;49.310;8.134;2023-07-16T09:29:06;6.40;;;5.90;;
3299;SDS011;1662;49.310;8.134;2023-07-16T09:31:35;5.87;;;5.47;;
3299;SDS011;1662;49.310;8.134;2023-07-16T09:34:01;6.60;;;6.10;;
3299;SDS011;1662;49.310;8.134;2023-07-16T09:36:33;6.47;;;6.17;;
3299;SDS011;1662;49.310;8.134;2023-07-16T09:38:59;8.07;;;7.63;;
3299;SDS011;1662;49.310;8.134;2023-07-16T09:41:26;7.77;;;7.13;;
3299;SDS011;1662;49.310;8.134;2023-07-16T09:43:53;7.77;;;6.93;;
3299;SDS011;1662;49.310;8.134;2023-07-16T09:46:19;3.33;;;3.13;;
3299;SDS011;1662;49.310;8.134;2023-07-16T09:48:44;12.63;;;8.03;;
3299;SDS011;1662;49.310;8.134;2023-07-16T09:51:10;9.37;;;8.30;;
3299;SDS011;1662;49.310;8.134;2023-07-16T09:53:37;8.90;;;8.20;;
3299;SDS011;1662;49.310;8.134;2023-07-16T09:56:07;9.40;;;8.80;;
3299;SDS011;1662;49.310;8.134;2023-07-16T09:58:35;5.93;;;4.83;;
3299;SDS011;1662;49.310;8.134;2023-07-16T10:01:01;4.30;;;4.00;;
3299;SDS011;1662;49.310;8.134;2023-07-16T10:03:30;11.60;;;10.60;;
3299;SDS011;1662;49.310;8.134;2023-07-16T10:06:05;8.37;;;7.80;;
3299;SDS011;1662;49.310;8.134;2023-07-16T10:08:33;8.43;;;7.63;;
3299;SDS011;1662;49.310;8.134;2023-07-16T10:10:59;12.00;;;11.20;;
3299;SDS011;1662;49.310;8.134;2023-07-16T10:13:26;4.53;;;4.00;;
3299;SDS011;1662;49.310;8.134;2023-07-16T10:15:55;12.13;;;11.43;;
3299;SDS011;1662;49.310;8.134;2023-07-16T10:18:26;10.67;;;9.97;;
3299;SDS011;1662;49.310;8.134;2023-07-16T10:20:59;7.90;;;4.40;;
3299;SDS011;1662;49.310;8.134;2023-07-16T10:26:04;5.70;;;5.13;;
3299;SDS011;1662;49.310;8.134;2023-07-16T10:28:31;5.57;;;4.40;;
3299;SDS011;1662;49.310;8.134;2023-07-16T10:30:59;9.00;;;8.60;;
3299;SDS011;1662;49.310;8.134;2023-07-16T10:33:25;5.37;;;4.90;;
3299;SDS011;1662;49.310;8.134;2023-07-16T10:35:51;4.00;;;3.80;;
3299;SDS011;1662;49.310;8.134;2023-07-16T10:38:16;5.00;;;4.60;;
3299;SDS011;1662;49.310;8.134;2023-07-16T10:40:45;4.70;;;4.27;;
3299;SDS011;1662;49.310;8.134;2023-07-16T10:43:11;9.53;;;5.20;;
3299;SDS011;1662;49.310;8.134;2023-07-16T10:45:37;13.40;;;12.80;;
3299;SDS011;1662;49.310;8.134;2023-07-16T10:48:04;13.00;;;12.30;;
3299;SDS011;1662;49.310;8.134;2023-07-16T10:50:33;13.90;;;13.07;;
3299;SDS011;1662;49.310;8.134;2023-07-16T10:53:00;11.53;;;10.80;;
3299;SDS011;1662;49.310;8.134;2023-07-16T10:55:26;12.97;;;12.20;;
3299;SDS011;1662;49.310;8.134;2023-07-16T10:57:53;13.10;;;12.40;;
3299;SDS011;1662;49.310;8.134;2023-07-16T11:00:19;13.43;;;12.63;;
3299;SDS011;1662;49.310;8.134;2023-07-16T11:02:46;10.50;;;9.80;;
3299;SDS011;1662;49.310;8.134;2023-07-16T11:05:13;15.30;;;14.40;;
3299;SDS011;1662;49.310;8.134;2023-07-16T11:07:57;5.83;;;5.00;;
3299;SDS011;1662;49.310;8.134;2023-07-16T11:10:28;6.23;;;5.50;;
3299;SDS011;1662;49.310;8.134;2023-07-16T11:12:55;5.90;;;5.40;;
3299;SDS011;1662;49.310;8.134;2023-07-16T11:15:33;6.00;;;5.47;;
3299;SDS011;1662;49.310;8.134;2023-07-16T11:18:00;6.93;;;4.93;;
3299;SDS011;1662;49.310;8.134;2023-07-16T11:20:29;6.53;;;6.07;;
3299;SDS011;1662;49.310;8.134;2023-07-16T11:22:57;5.60;;;5.03;;
3299;SDS011;1662;49.310;8.134;2023-07-16T11:25:23;8.27;;;5.57;;
3299;SDS011;1662;49.310;8.134;2023-07-16T11:27:50;6.00;;;5.60;;
3299;SDS011;1662;49.310;8.134;2023-07-16T11:30:24;6.00;;;5.50;;
3299;SDS011;1662;49.310;8.134;2023-07-16T11:32:50;5.53;;;5.23;;
3299;SDS011;1662;49.310;8.134;2023-07-16T11:35:16;5.20;;;4.90;;
3299;SDS011;1662;49.310;8.134;2023-07-16T11:37:45;17.70;;;16.77;;
3299;SDS011;1662;49.310;8.134;2023-07-16T11:40:16;17.20;;;15.97;;
3299;SDS011;1662;49.310;8.134;2023-07-16T11:42:42;13.20;;;12.60;;
3299;SDS011;1662;49.310;8.134;2023-07-16T11:45:15;6.83;;;6.20;;
3299;SDS011;1662;49.310;8.134;2023-07-16T11:47:43;12.50;;;11.80;;
3299;SDS011;1662;49.310;8.134;2023-07-16T11:50:09;10.63;;;10.23;;
3299;SDS011;1662;49.310;8.134;2023-07-16T11:52:38;17.03;;;16.23;;
3299;SDS011;1662;49.310;8.134;2023-07-16T11:55:04;16.80;;;15.90;;
3299;SDS011;1662;49.310;8.134;2023-07-16T11:57:30;16.57;;;15.87;;
3299;SDS011;1662;49.310;8.134;2023-07-16T11:59:56;17.20;;;16.50;;
3299;SDS011;1662;49.310;8.134;2023-07-16T12:02:22;18.30;;;17.60;;
3299;SDS011;1662;49.310;8.134;2023-07-16T12:04:50;6.43;;;5.83;;
3299;SDS011;1662;49.310;8.134;2023-07-16T12:07:30;17.80;;;16.80;;
3299;SDS011;1662;49.310;8.134;2023-07-16T12:09:57;7.10;;;6.50;;
3299;SDS011;1662;49.310;8.134;2023-07-16T12:12:23;18.37;;;17.63;;
3299;SDS011;1662;49.310;8.134;2023-07-16T12:14:48;17.60;;;16.87;;
3299;SDS011;1662;49.310;8.134;2023-07-16T12:17:14;18.87;;;17.60;;
3299;SDS011;1662;49.310;8.134;2023-07-16T12:19:39;19.40;;;18.30;;
3299;SDS011;1662;49.310;8.134;2023-07-16T12:22:05;20.70;;;19.50;;
3299;SDS011;1662;49.310;8.134;2023-07-16T12:24:31;18.77;;;17.50;;
3299;SDS011;1662;49.310;8.134;2023-07-16T12:26:56;17.80;;;17.13;;
3299;SDS011;1662;49.310;8.134;2023-07-16T12:29:23;9.70;;;9.20;;
3299;SDS011;1662;49.310;8.134;2023-07-16T12:31:49;11.87;;;10.97;;
3299;SDS011;1662;49.310;8.134;2023-07-16T12:34:15;7.67;;;7.27;;
3299;SDS011;1662;49.310;8.134;2023-07-16T12:36:40;7.60;;;6.30;;
3299;SDS011;1662;49.310;8.134;2023-07-16T12:39:09;10.27;;;9.77;;
3299;SDS011;1662;49.310;8.134;2023-07-16T12:41:34;9.00;;;8.30;;
3299;SDS011;1662;49.310;8.134;2023-07-16T12:44:00;8.57;;;7.00;;
3299;SDS011;1662;49.310;8.134;2023-07-16T12:46:26;10.67;;;10.00;;
3299;SDS011;1662;49.310;8.134;2023-07-16T12:48:51;9.20;;;8.40;;
3299;SDS011;1662;49.310;8.134;2023-07-16T12:51:17;7.27;;;6.70;;
3299;SDS011;1662;49.310;8.134;2023-07-16T12:53:43;9.93;;;9.23;;
3299;SDS011;1662;49.310;8.134;2023-07-16T12:56:09;9.07;;;8.57;;
3299;SDS011;1662;49.310;8.134;2023-07-16T12:58:34;6.87;;;6.37;;
3299;SDS011;1662;49.310;8.134;2023-07-16T13:01:00;9.27;;;8.77;;
3299;SDS011;1662;49.310;8.134;2023-07-16T13:03:26;11.30;;;10.60;;
3299;SDS011;1662;49.310;8.134;2023-07-16T13:05:52;18.77;;;17.30;;
3299;SDS011;1662;49.310;8.134;2023-07-16T13:08:17;13.10;;;12.40;;
3299;SDS011;1662;49.310;8.134;2023-07-16T13:10:43;17.00;;;16.10;;
3299;SDS011;1662;49.310;8.134;2023-07-16T13:13:10;17.50;;;16.67;;
3299;SDS011;1662;49.310;8.134;2023-07-16T13:15:39;15.43;;;14.60;;
3299;SDS011;1662;49.310;8.134;2023-07-16T13:18:04;8.50;;;7.17;;
3299;SDS011;1662;49.310;8.134;2023-07-16T13:20:30;12.37;;;11.57;;
3299;SDS011;1662;49.310;8.134;2023-07-16T13:22:56;6.70;;;6.20;;
3299;SDS011;1662;49.310;8.134;2023-07-16T13:25:22;16.43;;;15.53;;
3299;SDS011;1662;49.310;8.134;2023-07-16T13:27:48;17.40;;;16.50;;
3299;SDS011;1662;49.310;8.134;2023-07-16T13:30:13;14.80;;;13.80;;
3299;SDS011;1662;49.310;8.134;2023-07-16T13:32:39;14.83;;;13.40;;
3299;SDS011;1662;49.310;8.134;2023-07-16T13:35:05;13.70;;;12.77;;
3299;SDS011;1662;49.310;8.134;2023-07-16T13:37:31;14.43;;;13.63;;
3299;SDS011;1662;49.310;8.134;2023-07-16T13:39:57;15.10;;;14.20;;
3299;SDS011;1662;49.310;8.134;2023-07-16T13:42:22;16.10;;;15.03;;
3299;SDS011;1662;49.310;8.134;2023-07-16T13:44:48;16.07;;;14.80;;
3299;SDS011;1662;49.310;8.134;2023-07-16T13:47:14;14.50;;;13.80;;
3299;SDS011;1662;49.310;8.134;2023-07-16T13:49:39;15.33;;;14.47;;
3299;SDS011;1662;49.310;8.134;2023-07-16T13:52:07;15.40;;;14.43;;
3299;SDS011;1662;49.310;8.134;2023-07-16T13:54:33;15.23;;;14.43;;
3299;SDS011;1662;49.310;8.134;2023-07-16T13:56:58;14.53;;;13.83;;
3299;SDS011;1662;49.310;8.134;2023-07-16T13:59:24;14.37;;;13.60;;
3299;SDS011;1662;49.310;8.134;2023-07-16T14:01:58;15.10;;;14.30;;
3299;SDS011;1662;49.310;8.134;2023-07-16T14:04:26;14.93;;;14.00;;
3299;SDS011;1662;49.310;8.134;2023-07-16T14:06:52;14.80;;;14.00;;
3299;SDS011;1662;49.310;8.134;2023-07-16T14:09:18;15.23;;;14.43;;
3299;SDS011;1662;49.310;8.134;2023-07-16T14:11:44;15.07;;;14.07;;
3299;SDS011;1662;49.310;8.134;2023-07-16T14:14:12;15.83;;;14.83;;
3299;SDS011;1662;49.310;8.134;2023-07-16T14:16:45;15.33;;;14.40;;
3299;SDS011;1662;49.310;8.134;2023-07-16T14:19:11;14.80;;;13.90;;
3299;SDS011;1662;49.310;8.134;2023-07-16T14:21:37;15.67;;;14.80;;
3299;SDS011;1662;49.310;8.134;2023-07-16T14:24:03;15.27;;;14.27;;
3299;SDS011;1662;49.310;8.134;2023-07-16T14:26:29;15.30;;;14.13;;
3299;SDS011;1662;49.310;8.134;2023-07-16T14:28:58;14.83;;;13.93;;
3299;SDS011;1662;49.310;8.134;2023-07-16T14:31:24;15.03;;;14.13;;
3299;SDS011;1662;49.310;8.134;2023-07-16T14:33:49;14.80;;;14.00;;
3299;SDS011;1662;49.310;8.134;2023-07-16T14:36:17;14.63;;;13.83;;
3299;SDS011;1662;49.310;8.134;2023-07-16T14:38:43;14.33;;;13.43;;
3299;SDS011;1662;49.310;8.134;2023-07-16T14:41:08;14.57;;;13.97;;
3299;SDS011;1662;49.310;8.134;2023-07-16T14:43:34;14.23;;;13.43;;
3299;SDS011;1662;49.310;8.134;2023-07-16T14:46:00;13.73;;;13.10;;
3299;SDS011;1662;49.310;8.134;2023-07-16T14:48:28;16.83;;;14.40;;
3299;SDS011;1662;49.310;8.134;2023-07-16T14:50:53;13.57;;;12.63;;
3299;SDS011;1662;49.310;8.134;2023-07-16T14:53:19;11.87;;;11.37;;
3299;SDS011;1662;49.310;8.134;2023-07-16T14:55:51;14.10;;;13.50;;
3299;SDS011;1662;49.310;8.134;2023-07-16T14:58:18;13.60;;;12.80;;
3299;SDS011;1662;49.310;8.134;2023-07-16T15:00:45;13.87;;;12.90;;
3299;SDS011;1662;49.310;8.134;2023-07-16T15:03:11;12.90;;;12.20;;
3299;SDS011;1662;49.310;8.134;2023-07-16T15:05:37;12.67;;;12.03;;
3299;SDS011;1662;49.310;8.134;2023-07-16T15:08:05;11.77;;;11.00;;
3299;SDS011;1662;49.310;8.134;2023-07-16T15:10:31;11.93;;;11.23;;
3299;SDS011;1662;49.310;8.134;2023-07-16T15:12:57;12.77;;;12.17;;
3299;SDS011;1662;49.310;8.134;2023-07-16T15:15:23;8.43;;;7.90;;
3299;SDS011;1662;49.310;8.134;2023-07-16T15:17:49;8.00;;;7.50;;